Time;durP1;ratioP1;P1;durP2;ratioP2;P2;SDS_P1;SDS_P2;PMS_P1;PMS_P2;Temp;Humidity;BMP_temperature;BMP_pressure;BME280_temperature;BME280_humidity;BME280_pressure;Samples;Min_cycle;Max_cycle;Signal;HPM_P1;HPM_P2
2023/09/13 00:00:34;;;;;;;6.23;3.77;;;18.20;75.00;;;18.64;50.36;95182.94;5087576;28;20503;-65
2023/09/13 00:03:01;;;;;;;6.10;4.20;;;18.20;74.70;;;18.62;50.47;95187.59;5083746;28;20457;-61
2023/09/13 00:05:29;;;;;;;9.30;4.10;;;18.20;75.00;;;18.60;51.41;95190.44;5085715;28;20482;-65
2023/09/13 00:07:57;;;;;;;5.67;3.97;;;18.20;75.70;;;18.59;51.55;95187.97;5083080;28;20447;-64
2023/09/13 00:10:25;;;;;;;6.80;4.37;;;18.10;76.10;;;18.56;51.34;95189.19;5084723;28;20482;-65
2023/09/13 00:12:52;;;;;;;4.03;3.60;;;18.10;75.70;;;18.52;51.34;95190.53;5084350;28;20442;-60
2023/09/13 00:15:21;;;;;;;11.33;4.60;;;18.10;75.80;;;18.49;51.50;95193.56;5083939;28;20470;-62
2023/09/13 00:17:50;;;;;;;4.77;4.10;;;18.10;75.90;;;18.48;51.54;95191.91;5085648;28;20507;-65
2023/09/13 00:20:17;;;;;;;14.07;4.33;;;18.00;76.60;;;18.44;51.38;95199.44;5081730;28;20473;-61
2023/09/13 00:22:45;;;;;;;9.57;4.60;;;18.00;76.80;;;18.42;51.20;95200.66;5088018;28;20533;-65
2023/09/13 00:25:12;;;;;;;7.10;4.10;;;18.00;76.40;;;18.40;51.46;95202.63;5081166;28;20573;-61
2023/09/13 00:27:39;;;;;;;8.03;4.90;;;18.00;77.20;;;18.37;51.44;95200.34;5084539;28;20445;-65
2023/09/13 00:30:10;;;;;;;3.93;3.63;;;17.90;77.50;;;18.35;52.20;95205.03;5080918;28;20483;-60
2023/09/13 00:32:37;;;;;;;10.47;4.40;;;17.90;77.80;;;18.33;51.32;95204.38;5084651;28;20489;-65
2023/09/13 00:35:07;;;;;;;7.40;4.27;;;17.90;76.90;;;18.27;51.98;95197.94;5081481;28;20466;-61
2023/09/13 00:37:34;;;;;;;5.83;4.10;;;17.80;77.50;;;18.23;52.19;95194.81;5082673;28;20454;-60
2023/09/13 00:40:02;;;;;;;18.27;4.60;;;17.80;77.50;;;18.20;52.02;95195.16;5083783;28;20490;-65
2023/09/13 00:42:30;;;;;;;9.73;4.50;;;17.80;78.00;;;18.17;52.25;95198.19;5086440;28;20523;-60
2023/09/13 00:44:57;;;;;;;4.20;3.40;;;17.80;77.90;;;18.14;52.02;95203.88;5079650;28;20496;-61
2023/09/13 00:47:24;;;;;;;9.27;4.03;;;17.70;78.50;;;18.13;52.11;95202.22;5086283;28;20450;-65
2023/09/13 00:49:52;;;;;;;6.27;3.80;;;17.70;79.40;;;18.10;52.21;95202.56;5083685;28;20539;-60
2023/09/13 00:52:20;;;;;;;10.97;4.23;;;17.70;79.50;;;18.09;52.37;95200.91;5079101;28;20461;-61
2023/09/13 00:54:48;;;;;;;10.30;3.20;;;17.70;80.30;;;18.07;52.48;95203.72;5074423;28;20488;-61
2023/09/13 00:57:15;;;;;;;7.93;3.97;;;17.70;80.60;;;18.06;52.97;95203.91;5080324;28;20478;-61
2023/09/13 00:59:42;;;;;;;7.73;4.60;;;17.60;80.80;;;18.03;52.71;95202.47;5080278;28;20867;-63
2023/09/13 01:02:09;;;;;;;6.50;4.33;;;17.60;80.60;;;18.01;52.48;95207.09;5087404;28;20486;-65
2023/09/13 01:04:39;;;;;;;5.40;3.50;;;17.60;80.70;;;17.99;53.08;95203.00;5085116;28;20999;-64
2023/09/13 01:07:08;;;;;;;15.77;4.70;;;17.60;81.00;;;17.97;52.87;95208.50;5082780;28;21199;-64
2023/09/13 01:09:36;;;;;;;9.20;3.83;;;17.50;80.90;;;17.95;52.98;95213.13;5085722;28;20905;-60
2023/09/13 01:12:05;;;;;;;7.40;3.73;;;17.50;81.40;;;17.94;53.23;95208.84;5080262;28;20493;-61
2023/09/13 01:14:32;;;;;;;6.50;4.10;;;17.50;82.10;;;17.91;53.13;95204.69;5086590;28;20483;-61
2023/09/13 01:17:02;;;;;;;14.70;4.30;;;17.50;82.50;;;17.88;53.69;95207.72;5080002;28;20473;-60
2023/09/13 01:19:47;;;;;;;10.80;4.73;;;17.40;82.70;;;17.84;53.63;95202.88;5085043;28;20485;-65
2023/09/13 01:22:53;;;;;;;7.03;4.10;;;17.40;83.40;;;17.79;54.28;95206.06;5083555;28;20507;-60
2023/09/13 01:25:41;;;;;;;6.40;4.23;;;17.40;83.40;;;17.76;53.93;95203.75;5078352;28;20489;-64
2023/09/13 01:28:13;;;;;;;11.20;4.23;;;17.40;83.40;;;17.76;53.44;95205.59;5080269;28;20454;-63
2023/09/13 01:30:42;;;;;;;10.87;4.73;;;17.30;83.30;;;17.72;53.24;95205.97;5080543;28;20488;-64
2023/09/13 01:33:10;;;;;;;20.10;4.80;;;17.30;83.30;;;17.69;53.40;95206.31;5081473;28;20524;-64
2023/09/13 01:35:37;;;;;;;10.40;4.20;;;17.30;83.30;;;17.69;53.98;95210.78;5081619;28;20446;-64
2023/09/13 01:38:04;;;;;;;4.50;4.10;;;17.20;83.40;;;17.67;54.09;95212.78;5083246;28;20446;-61
2023/09/13 01:40:35;;;;;;;6.37;3.97;;;17.30;84.70;;;17.66;54.16;95205.81;5081037;28;20853;-63
2023/09/13 01:43:02;;;;;;;10.73;4.40;;;17.30;84.60;;;17.64;53.58;95207.81;5081806;28;20451;-61
2023/09/13 01:45:30;;;;;;;6.27;3.50;;;17.20;84.80;;;17.64;54.34;95202.50;5082657;28;20491;-60
2023/09/13 01:47:58;;;;;;;14.30;4.23;;;17.20;85.20;;;17.61;54.25;95206.34;5082530;28;20454;-64
2023/09/13 01:50:26;;;;;;;7.27;4.40;;;17.20;84.80;;;17.58;53.56;95203.22;5077044;28;20485;-64
2023/09/13 01:52:53;;;;;;;11.23;3.90;;;17.10;84.70;;;17.54;53.80;95200.91;5078849;28;20454;-60
2023/09/13 01:55:20;;;;;;;11.30;3.40;;;17.10;85.30;;;17.52;54.15;95202.91;5084487;28;20518;-65
2023/09/13 01:57:47;;;;;;;4.97;3.57;;;17.10;85.10;;;17.51;54.10;95197.78;5084861;28;20466;-64
2023/09/13 02:00:16;;;;;;;6.03;3.70;;;17.10;85.40;;;17.49;54.23;95211.25;5080448;28;20897;-64
2023/09/13 02:02:43;;;;;;;6.70;3.70;;;17.10;85.90;;;17.46;54.02;95206.25;5085985;28;20454;-64
2023/09/13 02:05:12;;;;;;;6.13;4.00;;;17.00;85.20;;;17.44;54.11;95205.59;5086063;28;20485;-64
2023/09/13 02:07:39;;;;;;;7.63;3.90;;;17.00;85.20;;;17.43;54.14;95206.63;5082773;28;20446;-61
2023/09/13 02:10:08;;;;;;;9.70;3.57;;;17.00;85.30;;;17.42;54.11;95214.75;5081849;28;21021;-65
2023/09/13 02:12:35;;;;;;;31.83;4.77;;;17.00;86.20;;;17.41;54.81;95207.78;5082159;28;20522;-61
2023/09/13 02:15:04;;;;;;;4.63;4.23;;;17.00;86.70;;;17.37;54.50;95207.31;5078881;28;20474;-63
2023/09/13 02:17:33;;;;;;;4.70;3.60;;;17.00;86.80;;;17.36;54.67;95214.44;5082046;28;20453;-65
2023/09/13 02:20:00;;;;;;;14.60;4.20;;;16.90;87.10;;;17.35;54.65;95211.94;5080714;28;20478;-65
2023/09/13 02:22:29;;;;;;;3.77;3.47;;;16.90;87.10;;;17.33;54.71;95211.31;5081979;28;20442;-63
2023/09/13 02:24:56;;;;;;;11.13;3.97;;;16.90;87.20;;;17.30;54.84;95209.00;5078415;28;20495;-62
2023/09/13 02:27:23;;;;;;;11.00;4.70;;;16.90;88.40;;;17.28;54.68;95208.34;5081977;28;20449;-66
2023/09/13 02:29:50;;;;;;;22.87;4.87;;;16.90;87.70;;;17.27;54.82;95212.00;5078764;28;20482;-60
2023/09/13 02:32:18;;;;;;;6.40;5.13;;;16.90;87.90;;;17.25;54.92;95208.69;5082359;28;20442;-62
2023/09/13 02:34:46;;;;;;;29.13;5.07;;;16.90;88.50;;;17.23;54.82;95210.66;5078304;28;20506;-62
2023/09/13 02:37:13;;;;;;;12.93;4.30;;;16.80;88.00;;;17.20;54.90;95214.53;5083132;28;20461;-60
2023/09/13 02:39:43;;;;;;;14.50;4.53;;;16.80;87.80;;;17.19;54.73;95213.69;5081650;28;20476;-64
2023/09/13 02:42:10;;;;;;;7.80;4.07;;;16.80;87.50;;;17.17;54.80;95221.00;5078404;28;20860;-64
2023/09/13 02:44:39;;;;;;;8.20;3.83;;;16.80;87.90;;;17.16;54.95;95215.84;5080828;28;20478;-65
2023/09/13 02:47:06;;;;;;;10.10;4.27;;;16.80;88.60;;;17.14;55.37;95224.00;5084155;28;21037;-60
2023/09/13 02:49:34;;;;;;;18.37;4.83;;;16.70;89.00;;;17.11;55.27;95219.03;5080274;28;20567;-64
2023/09/13 02:52:01;;;;;;;13.47;3.70;;;16.70;88.90;;;17.09;55.15;95220.22;5080487;28;20967;-65
2023/09/13 02:54:28;;;;;;;9.57;4.27;;;16.70;88.90;;;17.07;54.97;95223.06;5078300;28;20825;-64
2023/09/13 02:56:57;;;;;;;7.13;4.30;;;16.60;88.50;;;17.03;55.17;95216.41;5084216;28;21153;-61
2023/09/13 02:59:25;;;;;;;9.53;4.07;;;16.70;88.90;;;17.01;55.51;95215.75;5084957;28;21038;-64
2023/09/13 03:01:52;;;;;;;15.13;4.60;;;16.60;88.90;;;16.99;55.48;95218.59;5081919;28;20519;-63
2023/09/13 03:04:19;;;;;;;8.73;4.57;;;16.60;89.00;;;16.97;55.39;95219.75;5084496;28;21004;-64
2023/09/13 03:06:47;;;;;;;5.60;3.40;;;16.60;90.00;;;16.94;55.44;95218.25;5079859;28;20508;-60
2023/09/13 03:09:14;;;;;;;11.87;4.70;;;16.60;89.80;;;16.91;55.38;95223.91;5080596;28;20482;-61
2023/09/13 03:11:42;;;;;;;8.43;3.90;;;16.50;89.90;;;16.88;55.73;95228.75;5080677;28;20457;-60
2023/09/13 03:14:11;;;;;;;7.07;4.73;;;16.50;90.00;;;16.87;55.51;95232.38;5085432;28;20503;-60
2023/09/13 03:16:38;;;;;;;12.23;4.10;;;16.50;90.00;;;16.84;55.48;95234.38;5081020;28;20473;-65
2023/09/13 03:19:06;;;;;;;8.10;4.50;;;16.50;90.00;;;16.84;55.84;95233.56;5081900;28;20479;-64
2023/09/13 03:21:33;;;;;;;12.40;4.90;;;16.40;90.20;;;16.84;55.81;95238.88;5079570;28;20454;-63
2023/09/13 03:24:00;;;;;;;4.67;3.73;;;16.50;90.30;;;16.81;55.54;95233.88;5085827;28;20478;-67
2023/09/13 03:26:27;;;;;;;11.43;4.63;;;16.40;90.10;;;16.78;55.58;95234.22;5080738;28;20577;-63
2023/09/13 03:28:56;;;;;;;10.90;4.50;;;16.40;90.30;;;16.74;55.67;95232.88;5081792;28;20496;-63
2023/09/13 03:31:25;;;;;;;16.87;5.23;;;16.40;90.10;;;16.69;55.90;95241.38;5084045;28;20461;-64
2023/09/13 03:33:54;;;;;;;7.07;4.80;;;16.30;90.30;;;16.67;56.01;95238.06;5085267;28;20486;-64
2023/09/13 03:36:21;;;;;;;9.43;5.60;;;16.30;90.90;;;16.65;56.24;95229.41;5082685;28;20473;-61
2023/09/13 03:38:49;;;;;;;12.90;4.43;;;16.30;90.80;;;16.62;55.90;95241.22;5077103;28;20471;-64
2023/09/13 03:41:20;;;;;;;8.83;5.00;;;16.30;90.90;;;16.62;55.94;95240.38;5081968;28;20899;-59
2023/09/13 03:43:47;;;;;;;8.50;4.63;;;16.20;90.90;;;16.61;56.10;95238.72;5075389;28;20480;-60
2023/09/13 03:46:14;;;;;;;14.40;4.87;;;16.20;90.90;;;16.61;56.17;95231.59;5080983;28;20913;-63
2023/09/13 03:48:43;;;;;;;9.47;4.30;;;16.20;90.90;;;16.61;56.27;95241.38;5084362;28;20481;-60
2023/09/13 03:51:10;;;;;;;20.43;5.70;;;16.20;91.20;;;16.60;56.44;95237.88;5086689;28;20553;-61
2023/09/13 03:53:38;;;;;;;8.73;4.20;;;16.20;91.40;;;16.59;56.79;95243.38;5083990;28;20499;-60
2023/09/13 03:56:06;;;;;;;10.40;4.90;;;16.20;91.40;;;16.58;56.53;95241.72;5086983;28;20991;-65
2023/09/13 03:58:34;;;;;;;10.13;4.90;;;16.20;91.30;;;16.58;57.00;95241.72;5083020;28;20556;-61
2023/09/13 04:01:02;;;;;;;14.20;4.13;;;16.20;91.80;;;16.56;56.63;95235.72;5090089;28;20450;-61
2023/09/13 04:03:29;;;;;;;9.67;5.07;;;16.20;91.50;;;16.55;56.53;95234.09;5087209;28;20450;-65
2023/09/13 04:05:58;;;;;;;13.80;5.47;;;16.20;91.50;;;16.53;56.78;95234.25;5087500;28;20508;-65
2023/09/13 04:08:26;;;;;;;14.93;4.60;;;16.10;91.50;;;16.53;56.49;95234.25;5083849;28;20460;-62
2023/09/13 04:10:53;;;;;;;9.40;4.53;;;16.20;91.50;;;16.52;56.74;95240.56;5087400;28;20465;-61
2023/09/13 04:13:20;;;;;;;25.60;5.73;;;16.10;91.50;;;16.52;56.58;95248.53;5085350;28;20548;-59
2023/09/13 04:15:48;;;;;;;8.43;4.80;;;16.10;91.30;;;16.52;56.31;95239.75;5081702;28;20458;-64
2023/09/13 04:18:15;;;;;;;12.57;6.00;;;16.10;91.30;;;16.52;56.67;95240.56;5084481;28;20462;-62
2023/09/13 04:20:43;;;;;;;9.80;4.87;;;16.20;91.70;;;16.55;56.76;95252.69;5081324;28;20450;-64
2023/09/13 04:23:12;;;;;;;21.07;6.60;;;16.20;91.70;;;16.53;56.55;95249.34;5089397;28;20453;-65
2023/09/13 04:25:39;;;;;;;12.77;5.30;;;16.20;91.50;;;16.53;56.74;95244.03;5079174;28;20485;-62
2023/09/13 04:28:07;;;;;;;10.40;5.37;;;16.20;91.80;;;16.54;56.47;95251.00;5077853;28;20450;-65
2023/09/13 04:30:34;;;;;;;13.50;5.20;;;16.20;91.70;;;16.58;56.86;95244.38;5078965;28;20485;-66
2023/09/13 04:33:02;;;;;;;19.97;5.67;;;16.20;91.80;;;16.60;56.61;95247.69;5083441;28;20466;-61
2023/09/13 04:35:30;;;;;;;15.63;4.73;;;16.20;91.90;;;16.60;56.64;95250.34;5085886;28;20477;-66
2023/09/13 04:37:57;;;;;;;15.43;6.07;;;16.20;91.60;;;16.61;56.53;95246.69;5084484;28;20454;-61
2023/09/13 04:40:25;;;;;;;12.03;6.03;;;16.20;91.50;;;16.62;56.33;95256.31;5086664;28;20535;-66
2023/09/13 04:42:56;;;;;;;8.20;5.73;;;16.20;91.50;;;16.65;56.53;95250.66;5081152;28;20519;-62
2023/09/13 04:45:24;;;;;;;13.60;5.03;;;16.20;91.70;;;16.69;56.64;95251.16;5082094;28;20482;-65
2023/09/13 04:47:51;;;;;;;17.07;6.00;;;16.30;92.00;;;16.74;56.93;95244.34;5082797;28;20998;-63
2023/09/13 04:50:18;;;;;;;15.60;6.87;;;16.30;92.10;;;16.79;56.76;95252.66;5084407;28;20479;-61
2023/09/13 04:52:45;;;;;;;14.03;5.30;;;16.40;92.10;;;16.83;56.56;95243.31;5083632;28;20469;-67
2023/09/13 04:55:13;;;;;;;16.70;6.87;;;16.40;92.00;;;16.87;56.74;95249.19;5083963;28;20538;-60
2023/09/13 04:57:41;;;;;;;14.27;5.90;;;16.50;92.20;;;16.91;56.33;95249.66;5081156;28;20478;-62
2023/09/13 05:00:11;;;;;;;23.67;6.80;;;16.50;92.10;;;16.96;56.59;95244.66;5083228;28;20458;-60
2023/09/13 05:02:38;;;;;;;24.53;5.90;;;16.60;92.00;;;17.01;56.78;95245.00;5080907;28;20451;-67
2023/09/13 05:05:07;;;;;;;12.73;5.33;;;16.60;92.00;;;17.10;56.68;95249.28;5083232;28;20545;-61
2023/09/13 05:07:35;;;;;;;13.17;5.83;;;16.70;91.70;;;17.13;55.84;95248.09;5082456;28;20465;-60
2023/09/13 05:10:02;;;;;;;10.93;6.70;;;16.70;91.40;;;17.20;55.80;95249.09;5082354;28;20568;-67
2023/09/13 05:12:29;;;;;;;8.50;4.90;;;16.80;91.50;;;17.33;56.11;95245.88;5086459;28;20453;-63
2023/09/13 05:14:58;;;;;;;13.73;7.00;;;16.90;91.30;;;17.48;55.91;95244.16;5081257;28;20473;-60
2023/09/13 05:17:25;;;;;;;12.63;7.17;;;17.10;91.40;;;17.63;55.33;95246.91;5084226;28;20827;-67
2023/09/13 05:19:52;;;;;;;17.83;6.60;;;17.20;91.10;;;17.74;55.11;95256.34;5082113;28;20467;-67
2023/09/13 05:22:20;;;;;;;26.27;8.00;;;17.30;90.90;;;17.81;55.47;95248.47;5082388;28;20854;-61
2023/09/13 05:24:47;;;;;;;23.07;7.37;;;17.40;90.70;;;17.87;55.40;95253.91;5079459;28;21018;-61
2023/09/13 05:27:14;;;;;;;22.03;7.03;;;17.50;90.70;;;17.95;54.84;95253.06;5081428;28;20634;-66
2023/09/13 05:29:41;;;;;;;17.70;6.53;;;17.50;90.50;;;18.06;54.98;95249.16;5082823;28;21044;-61
2023/09/13 05:32:10;;;;;;;11.63;7.27;;;17.60;90.40;;;18.15;54.73;95250.75;5081423;28;20453;-61
2023/09/13 05:34:37;;;;;;;13.73;7.17;;;17.70;90.00;;;18.23;54.47;95250.72;5083940;28;20500;-61
2023/09/13 05:37:05;;;;;;;21.03;7.63;;;17.80;89.90;;;18.33;54.04;95253.13;5082145;28;20474;-61
2023/09/13 05:39:32;;;;;;;16.80;6.20;;;17.90;89.70;;;18.50;53.83;95253.00;5086802;28;20469;-67
2023/09/13 05:42:01;;;;;;;22.63;7.70;;;18.00;89.40;;;18.70;53.48;95263.97;5082990;28;20454;-67
2023/09/13 05:44:28;;;;;;;32.40;7.20;;;18.20;88.70;;;18.92;53.05;95255.13;5080170;28;20467;-60
2023/09/13 05:46:56;;;;;;;24.50;7.57;;;18.40;88.00;;;19.14;53.06;95248.06;5081075;28;20525;-62
2023/09/13 05:49:24;;;;;;;17.07;7.90;;;18.60;87.50;;;19.40;52.63;95253.97;5082746;28;20565;-61
2023/09/13 05:51:52;;;;;;;15.10;7.60;;;18.80;86.70;;;19.64;52.18;95248.31;5076822;28;20455;-61
2023/09/13 05:54:19;;;;;;;18.30;7.77;;;19.00;85.60;;;19.88;51.61;95254.38;5086928;28;20466;-66
2023/09/13 05:56:46;;;;;;;23.70;7.23;;;19.30;84.70;;;20.10;51.16;95249.06;5080245;28;20454;-60
2023/09/13 05:59:14;;;;;;;18.97;7.70;;;19.50;83.50;;;20.33;50.64;95255.03;5079006;28;20481;-67
2023/09/13 06:01:41;;;;;;;17.00;7.27;;;19.70;82.20;;;20.58;50.32;95254.66;5083019;28;20458;-61
2023/09/13 06:04:09;;;;;;;18.83;7.23;;;19.90;81.20;;;20.80;50.06;95251.97;5085879;28;20477;-67
2023/09/13 06:06:37;;;;;;;22.93;8.57;;;20.20;80.00;;;21.03;49.30;95246.38;5079213;28;20494;-67
2023/09/13 06:09:05;;;;;;;20.70;7.60;;;20.40;79.30;;;21.26;48.78;95248.78;5079793;28;20845;-67
2023/09/13 06:11:32;;;;;;;20.00;7.10;;;20.60;78.20;;;21.49;48.25;95248.53;5079838;28;20447;-61
2023/09/13 06:14:00;;;;;;;20.70;7.27;;;20.90;77.20;;;21.74;47.87;95253.38;5079465;28;20486;-63
2023/09/13 06:16:28;;;;;;;25.90;7.97;;;21.10;75.90;;;21.97;47.58;95247.69;5079925;28;20453;-67
2023/09/13 06:18:56;;;;;;;17.07;7.00;;;21.30;74.70;;;22.18;47.01;95249.38;5081893;28;20474;-62
2023/09/13 06:21:23;;;;;;;19.30;7.20;;;21.60;73.80;;;22.44;46.66;95254.00;5074755;28;20463;-62
2023/09/13 06:23:52;;;;;;;21.10;7.00;;;21.80;73.20;;;22.71;46.06;95254.00;5084176;28;20479;-62
2023/09/13 06:26:20;;;;;;;12.57;7.07;;;22.00;72.30;;;22.95;46.20;95251.75;5086488;28;20485;-62
2023/09/13 06:28:47;;;;;;;27.50;8.10;;;22.30;71.50;;;23.19;44.98;95253.81;5082214;28;20825;-61
2023/09/13 06:31:15;;;;;;;9.67;7.60;;;22.50;70.60;;;23.43;45.22;95251.50;5087014;28;20616;-67
2023/09/13 06:33:43;;;;;;;24.73;7.03;;;22.80;69.60;;;23.71;44.22;95259.25;5085327;28;20465;-66
2023/09/13 06:36:10;;;;;;;17.93;7.73;;;23.00;68.90;;;23.93;44.19;95251.72;5082682;28;20466;-65
2023/09/13 06:38:37;;;;;;;18.70;8.20;;;23.30;67.90;;;24.13;44.02;95253.50;5084382;28;20478;-62
2023/09/13 06:41:06;;;;;;;13.20;7.67;;;23.50;66.80;;;24.34;43.43;95253.16;5084699;28;21223;-62
2023/09/13 06:43:33;;;;;;;18.23;7.63;;;23.70;66.50;;;24.59;42.67;95255.09;5083484;28;21042;-62
2023/09/13 06:46:01;;;;;;;15.63;7.53;;;23.90;66.20;;;24.86;42.34;95252.19;5083367;28;20489;-63
2023/09/13 06:48:28;;;;;;;15.10;6.80;;;24.10;65.20;;;25.15;42.41;95258.78;5086777;28;20462;-66
2023/09/13 06:50:56;;;;;;;26.53;8.17;;;24.40;64.60;;;25.45;41.63;95254.59;5081068;28;20467;-67
2023/09/13 06:53:23;;;;;;;18.67;7.67;;;24.70;63.80;;;25.75;41.35;95258.19;5083843;28;20484;-67
2023/09/13 06:55:51;;;;;;;21.87;7.57;;;25.00;63.10;;;26.04;41.03;95261.19;5080584;28;20451;-65
2023/09/13 06:58:19;;;;;;;26.93;7.53;;;25.30;62.60;;;26.35;40.36;95263.88;5079778;28;20545;-67
2023/09/13 07:00:47;;;;;;;15.70;7.40;;;25.60;61.50;;;26.60;40.23;95266.41;5080194;28;20458;-67
2023/09/13 07:03:14;;;;;;;20.53;7.73;;;25.90;60.90;;;26.94;39.90;95264.03;5080326;28;20833;-67
2023/09/13 07:05:42;;;;;;;18.77;9.10;;;26.20;60.30;;;27.28;39.26;95267.00;5083975;28;20445;-67
2023/09/13 07:08:10;;;;;;;9.97;6.40;;;26.50;59.60;;;27.64;38.81;95262.44;5080189;28;20445;-66
2023/09/13 07:10:38;;;;;;;21.90;6.97;;;26.90;58.90;;;27.91;37.82;95265.44;5078762;28;20449;-66
2023/09/13 07:13:06;;;;;;;15.93;7.10;;;27.20;57.60;;;28.11;37.65;95267.75;5080831;28;20987;-65
2023/09/13 07:15:35;;;;;;;11.43;7.50;;;27.40;57.00;;;28.33;37.71;95265.19;5080188;28;20476;-67
2023/09/13 07:18:02;;;;;;;19.13;7.20;;;27.60;56.60;;;28.57;36.89;95262.38;5078613;28;20485;-66
2023/09/13 07:20:30;;;;;;;16.80;7.60;;;27.80;55.90;;;28.87;35.72;95261.31;5081907;28;20471;-68
2023/09/13 07:22:59;;;;;;;14.00;7.13;;;28.10;55.00;;;29.09;35.90;95264.09;5080952;28;20466;-67
2023/09/13 07:25:27;;;;;;;18.40;6.60;;;28.30;54.50;;;29.27;35.75;95266.56;5082431;28;20469;-66
2023/09/13 07:27:54;;;;;;;27.30;7.03;;;28.50;54.10;;;29.50;35.03;95264.75;5083263;28;20486;-66
2023/09/13 07:30:23;;;;;;;20.57;7.83;;;28.70;53.70;;;29.78;34.50;95265.66;5085824;28;20477;-65
2023/09/13 07:32:52;;;;;;;12.57;7.40;;;29.00;53.10;;;30.03;34.21;95266.00;5091373;28;20458;-67
2023/09/13 07:35:20;;;;;;;15.17;8.13;;;29.20;52.50;;;30.31;34.69;95260.63;5089433;28;20504;-66
2023/09/13 07:37:52;;;;;;;23.83;9.70;;;29.40;51.90;;;30.59;33.63;95266.91;5088578;28;20463;-65
2023/09/13 07:40:19;;;;;;;18.13;8.80;;;29.70;51.80;;;30.80;33.78;95254.31;5083242;28;21076;-66
2023/09/13 07:42:46;;;;;;;12.60;7.87;;;30.00;51.20;;;31.09;33.57;95255.69;5084625;28;20493;-66
2023/09/13 07:45:14;;;;;;;25.63;8.00;;;30.30;51.00;;;31.50;33.17;95252.44;5084047;28;20504;-60
2023/09/13 07:47:41;;;;;;;21.77;8.37;;;30.80;50.80;;;31.98;32.78;95249.72;5087654;28;20492;-65
2023/09/13 07:50:29;;;;;;;29.27;9.00;;;31.30;50.20;;;32.46;31.20;95242.25;5085939;28;20219;-67
2023/09/13 07:52:57;;;;;;;18.03;7.37;;;31.80;48.40;;;32.74;31.76;95258.44;5085441;28;20200;-65
2023/09/13 07:55:25;;;;;;;24.40;9.27;;;32.20;48.30;;;32.99;30.88;95254.88;5087796;28;20226;-68
2023/09/13 07:57:53;;;;;;;18.23;8.32;;;32.60;46.70;;;33.09;30.52;95252.13;5085463;28;20191;-61
2023/09/13 08:00:21;;;;;;;15.00;7.40;;;32.70;46.80;;;33.04;30.56;95254.88;5085030;28;20314;-62
2023/09/13 08:02:49;;;;;;;24.73;7.93;;;32.70;46.00;;;33.09;30.39;95254.88;5083019;28;20211;-61
2023/09/13 08:05:18;;;;;;;10.63;7.07;;;32.80;46.10;;;33.23;30.15;95252.44;5081350;28;20232;-59
2023/09/13 08:07:45;;;;;;;25.90;7.85;;;32.80;46.10;;;33.49;30.51;95252.41;5084277;28;20277;-61
2023/09/13 08:10:13;;;;;;;21.27;8.70;;;33.00;46.00;;;33.78;30.05;95252.66;5088307;28;20207;-60
2023/09/13 08:12:41;;;;;;;19.70;7.05;;;33.30;45.50;;;34.04;28.75;95247.09;5087900;28;20207;-61
2023/09/13 08:15:09;;;;;;;15.95;6.65;;;33.60;44.70;;;34.30;29.81;95250.53;5082674;28;20208;-60
2023/09/13 08:17:36;;;;;;;22.17;7.40;;;33.90;44.60;;;34.66;29.35;95256.63;5082311;28;20220;-67
2023/09/13 08:20:04;;;;;;;13.23;7.75;;;34.20;44.30;;;35.04;29.20;95250.63;5081567;28;20255;-59
2023/09/13 08:22:33;;;;;;;16.48;6.72;;;34.70;43.70;;;35.35;28.16;95253.13;5087831;28;20200;-69
2023/09/13 08:25:01;;;;;;;22.73;7.03;;;35.00;42.90;;;35.63;27.70;95258.88;5082247;28;20251;-69
2023/09/13 08:27:28;;;;;;;16.00;7.03;;;35.30;42.70;;;35.92;27.06;95258.03;5087023;28;20707;-71
2023/09/13 08:29:56;;;;;;;19.60;6.68;;;35.60;41.70;;;36.03;27.50;95254.88;5084490;28;20699;-70
2023/09/13 08:32:24;;;;;;;13.55;6.90;;;35.80;41.50;;;36.18;27.27;95250.34;5080390;28;20200;-62
2023/09/13 08:34:51;;;;;;;14.23;5.63;;;35.90;41.10;;;36.35;26.57;95249.88;5082269;28;20215;-61
2023/09/13 08:37:18;;;;;;;19.77;5.07;;;36.00;40.80;;;36.48;26.67;95248.31;5088347;28;20228;-61
2023/09/13 08:39:47;;;;;;;15.90;7.00;;;36.10;40.40;;;36.54;26.31;95242.47;5079944;28;20299;-59
2023/09/13 08:42:15;;;;;;;10.95;6.22;;;36.10;40.20;;;36.61;26.36;95242.91;5082983;28;20203;-59
2023/09/13 08:44:42;;;;;;;15.38;5.88;;;36.10;39.90;;;36.71;25.87;95243.88;5085358;28;20230;-72
2023/09/13 08:47:10;;;;;;;35.40;5.50;;;36.20;39.90;;;36.80;26.53;95230.34;5083513;28;20223;-71
2023/09/13 08:49:37;;;;;;;16.38;6.35;;;36.20;39.70;;;36.92;26.10;95231.50;5088519;28;20695;-60
2023/09/13 08:52:06;;;;;;;13.38;5.85;;;36.30;40.00;;;37.06;25.68;95228.81;5080464;28;20211;-70
2023/09/13 08:54:34;;;;;;;29.33;6.18;;;36.40;39.70;;;37.17;24.80;95220.38;5082386;28;20267;-72
2023/09/13 08:57:03;;;;;;;8.55;4.70;;;36.40;39.20;;;37.12;25.44;95219.38;5082596;28;20210;-71
2023/09/13 08:59:32;;;;;;;17.40;5.90;;;36.40;38.70;;;36.89;25.07;95220.31;5080820;28;20219;-68
2023/09/13 09:01:59;;;;;;;16.38;5.72;;;36.30;38.40;;;36.61;25.20;95217.44;5091715;28;20196;-62
2023/09/13 09:04:26;;;;;;;10.60;5.00;;;36.00;38.20;;;36.48;25.04;95216.25;5082383;28;20237;-63
2023/09/13 09:06:54;;;;;;;11.02;4.30;;;35.80;38.70;;;36.49;25.33;95223.34;5080777;28;20317;-68
2023/09/13 09:09:23;;;;;;;7.47;5.00;;;35.70;38.70;;;36.35;25.32;95217.81;5082206;28;20224;-69
2023/09/13 09:11:53;;;;;;;9.20;5.90;;;35.60;38.70;;;36.33;25.63;95214.56;5081414;28;20204;-61
2023/09/13 09:14:22;;;;;;;11.73;5.30;;;35.50;39.00;;;36.51;25.64;95212.09;5086506;28;20228;-70
2023/09/13 09:16:50;;;;;;;9.85;5.05;;;35.60;39.30;;;36.73;25.74;95215.06;5082961;28;20231;-62
2023/09/13 09:19:18;;;;;;;17.92;5.68;;;35.80;39.20;;;36.92;25.46;95208.72;5081980;28;20231;-61
2023/09/13 09:21:45;;;;;;;13.35;5.15;;;36.00;39.00;;;37.11;25.25;95212.25;5081260;28;20208;-69
2023/09/13 09:24:13;;;;;;;13.48;4.78;;;36.20;38.90;;;37.24;24.95;95210.69;5082075;28;20254;-69
2023/09/13 09:26:40;;;;;;;12.77;4.40;;;36.40;38.40;;;37.23;25.11;95202.75;5080558;28;20200;-70
2023/09/13 09:29:14;;;;;;;7.90;5.05;;;36.40;38.10;;;37.32;24.60;95203.69;5083262;28;20348;-70
2023/09/13 09:31:43;;;;;;;14.25;4.63;;;36.40;38.00;;;37.41;24.88;95207.38;5081624;28;20200;-67
2023/09/13 09:34:11;;;;;;;9.73;4.65;;;36.50;37.50;;;37.35;24.48;95200.34;5081260;28;20227;-61
2023/09/13 09:36:40;;;;;;;18.98;5.85;;;36.50;37.50;;;37.19;24.56;95208.00;5081131;28;20748;-61
2023/09/13 09:39:08;;;;;;;14.52;5.05;;;36.30;37.40;;;37.16;24.52;95202.31;5081297;28;20232;-62
2023/09/13 09:41:36;;;;;;;9.15;5.35;;;36.30;37.40;;;37.21;24.97;95199.47;5081560;28;20287;-63
2023/09/13 09:44:03;;;;;;;8.63;4.57;;;36.30;37.40;;;37.30;24.73;95197.69;5081434;28;20223;-63
2023/09/13 09:46:32;;;;;;;20.75;4.68;;;36.40;37.50;;;37.43;24.56;95196.91;5081223;28;20223;-65
2023/09/13 09:49:00;;;;;;;8.27;4.60;;;36.50;37.50;;;37.39;24.48;95187.66;5081298;28;20251;-70
2023/09/13 09:51:28;;;;;;;14.35;5.40;;;36.50;37.40;;;37.21;24.15;95180.28;5080826;28;20250;-69
2023/09/13 09:53:56;;;;;;;16.80;5.20;;;36.40;37.10;;;37.06;24.06;95184.94;5081223;28;20234;-70
2023/09/13 09:56:23;;;;;;;9.27;4.95;;;36.30;36.80;;;36.88;24.06;95180.31;5080974;28;20204;-70
2023/09/13 09:58:52;;;;;;;20.52;5.82;;;36.10;36.80;;;36.74;24.65;95175.56;5081242;28;20284;-70
2023/09/13 10:01:19;;;;;;;16.48;5.18;;;36.00;37.20;;;36.53;24.74;95166.84;5080384;28;20269;-70
2023/09/13 10:03:46;;;;;;;13.15;4.75;;;35.80;37.10;;;36.43;25.22;95173.28;5081561;28;20223;-70
2023/09/13 10:06:16;;;;;;;11.90;4.72;;;35.60;37.60;;;36.49;24.98;95162.28;5080307;28;20291;-63
2023/09/13 10:08:44;;;;;;;13.68;5.65;;;35.60;37.80;;;36.43;24.13;95161.53;5081272;28;20243;-69
2023/09/13 10:11:12;;;;;;;6.93;4.22;;;35.60;37.00;;;36.23;24.91;95157.13;5080667;28;20314;-70
2023/09/13 10:13:41;;;;;;;10.15;6.65;;;35.50;37.50;;;36.22;24.79;95152.75;5081527;28;20709;-63
2023/09/13 10:16:09;;;;;;;10.15;4.55;;;35.40;37.70;;;36.30;24.54;95152.13;5079638;28;20204;-69
2023/09/13 10:18:39;;;;;;;9.73;5.38;;;35.40;37.80;;;36.49;24.68;95152.13;5081225;28;20254;-71